Time;durP1;ratioP1;P1;durP2;ratioP2;P2;SDS_P1;SDS_P2;PMS_P1;PMS_P2;Temp;Humidity;BMP_temperature;BMP_pressure;BME280_temperature;BME280_humidity;BME280_pressure;Samples;Min_cycle;Max_cycle;Signal;HPM_P1;HPM_P2
2022/01/28 00:02:41;;;;;;;;;;;6.50;99.50;;;;;;6183774;23;19947;-81
2022/01/28 00:05:14;;;;;;;;;;;6.50;99.40;;;;;;6160530;23;19905;-87
2022/01/28 00:07:47;;;;;;;;;;;6.50;99.30;;;;;;6157845;23;19909;-87
2022/01/28 00:10:15;;;;;;;;;;;6.50;99.30;;;;;;6156757;23;20311;-87
2022/01/28 00:15:39;;;;;;;;;;;6.50;99.30;;;;;;6157796;23;19963;-87
2022/01/28 00:40:05;;;;;;;;;;;6.30;99.00;;;;;;6157460;23;19904;-88
2022/01/28 00:42:34;;;;;;;;;;;6.20;99.00;;;;;;6157515;23;19932;-87
2022/01/28 00:45:04;;;;;;;;;;;6.20;99.00;;;;;;6156132;23;19939;-88
2022/01/28 00:47:33;;;;;;;;;;;6.20;99.00;;;;;;6157681;23;19927;-87
2022/01/28 00:49:58;;;;;;;;;;;6.10;99.00;;;;;;6155839;23;19905;-88
2022/01/28 00:52:26;;;;;;;;;;;6.20;99.00;;;;;;6155977;23;19905;-87
2022/01/28 00:54:55;;;;;;;;;;;6.10;98.90;;;;;;6155082;23;19948;-87
2022/01/28 00:57:23;;;;;;;;;;;6.10;98.90;;;;;;6131419;23;19912;-88
2022/01/28 01:00:04;;;;;;;;;;;;;;;;;;;;;
2022/01/28 01:02:30;;;;;;;;;;;6.10;99.00;;;;;;6157322;23;20013;-87
2022/01/28 01:04:56;;;;;;;;;;;6.00;98.90;;;;;;6155871;23;19947;-87
2022/01/28 01:07:21;;;;;;;;;;;6.00;99.00;;;;;;6156425;23;19905;-87
2022/01/28 01:09:54;;;;;;;;;;;6.00;99.00;;;;;;6155721;23;20323;-88
2022/01/28 01:12:23;;;;;;;;;;;5.90;99.00;;;;;;6133100;23;19908;-87
2022/01/28 01:14:48;;;;;;;;;;;5.90;99.00;;;;;;6155440;23;19909;-87
2022/01/28 01:23:21;;;;;;;;;;;5.80;99.00;;;;;;6184657;23;19929;-90
2022/01/28 01:28:46;;;;;;;;;;;5.80;99.10;;;;;;6123822;23;19893;-87
2022/01/28 01:31:16;;;;;;;;;;;5.80;99.10;;;;;;6163742;23;19912;-87
2022/01/28 01:33:55;;;;;;;;;;;5.80;99.10;;;;;;6159029;23;19909;-88
2022/01/28 01:36:23;;;;;;;;;;;5.70;99.10;;;;;;6156069;23;19919;-88
2022/01/28 01:38:49;;;;;;;;;;;5.60;99.40;;;;;;6157508;23;19944;-88
2022/01/28 01:41:19;;;;;;;;;;;5.60;99.20;;;;;;6155712;23;20319;-87
2022/01/28 01:43:56;;;;;;;;;;;5.60;99.10;;;;;;6155730;23;19904;-87
2022/01/28 01:46:57;;;;;;;;;;;5.60;99.20;;;;;;6155895;23;19971;-87
2022/01/28 01:52:09;;;;;;;;;;;5.60;99.20;;;;;;6156364;23;20239;-86
2022/01/28 01:54:37;;;;;;;;;;;5.60;99.30;;;;;;6155051;23;20243;-87
2022/01/28 01:57:07;;;;;;;;;;;5.60;99.40;;;;;;6155138;23;19904;-88
2022/01/28 01:59:32;;;;;;;;;;;5.60;99.30;;;;;;6155256;23;19905;-87
2022/01/28 02:02:00;;;;;;;;;;;5.60;99.30;;;;;;6155015;23;20223;-88
2022/01/28 02:04:28;;;;;;;;;;;5.60;99.30;;;;;;6156960;23;19909;-87
2022/01/28 02:06:58;;;;;;;;;;;5.60;99.30;;;;;;6155226;23;20298;-87
2022/01/28 02:09:31;;;;;;;;;;;5.60;99.40;;;;;;6155450;23;20315;-87
2022/01/28 02:12:12;;;;;;;;;;;;;;;;;;;;;
2022/01/28 02:14:43;;;;;;;;;;;5.60;99.40;;;;;;6156829;23;19991;-88
2022/01/28 02:17:12;;;;;;;;;;;5.60;99.40;;;;;;6155419;23;20216;-88
2022/01/28 02:19:48;;;;;;;;;;;5.60;99.40;;;;;;6156803;23;19915;-87
2022/01/28 02:22:20;;;;;;;;;;;5.60;99.40;;;;;;6155271;23;19940;-87
2022/01/28 02:24:48;;;;;;;;;;;5.60;99.40;;;;;;6155306;23;19929;-88
2022/01/28 02:27:16;;;;;;;;;;;5.60;99.50;;;;;;6154971;23;19904;-87
2022/01/28 02:29:44;;;;;;;;;;;5.60;99.50;;;;;;6155411;23;19905;-87
2022/01/28 02:32:09;;;;;;;;;;;5.60;99.50;;;;;;6130528;23;19999;-87
2022/01/28 02:34:37;;;;;;;;;;;5.60;99.50;;;;;;6155548;23;19947;-87
2022/01/28 02:37:03;;;;;;;;;;;5.60;99.50;;;;;;6156881;23;19983;-87
2022/01/28 02:39:29;;;;;;;;;;;5.50;99.50;;;;;;6155150;23;19909;-87
2022/01/28 02:42:03;;;;;;;;;;;5.60;99.50;;;;;;6155660;23;20329;-87
2022/01/28 02:44:50;;;;;;;;;;;5.50;99.50;;;;;;6155707;23;19995;-87
2022/01/28 02:47:30;;;;;;;;;;;5.60;99.50;;;;;;6155984;23;19904;-87
2022/01/28 02:49:58;;;;;;;;;;;5.60;99.50;;;;;;6160236;23;19928;-86
2022/01/28 02:52:35;;;;;;;;;;;5.60;99.50;;;;;;6175391;23;19905;-87
2022/01/28 02:55:03;;;;;;;;;;;5.50;99.50;;;;;;6202090;22;19924;-87
2022/01/28 02:57:28;;;;;;;;;;;5.50;99.50;;;;;;6187611;23;19893;-88
2022/01/28 02:59:57;;;;;;;;;;;5.50;99.50;;;;;;6179085;23;19957;-84
2022/01/28 03:02:22;;;;;;;;;;;5.50;99.50;;;;;;6138113;23;19908;-88
2022/01/28 03:07:32;;;;;;;;;;;5.40;99.60;;;;;;6186584;23;19911;-87
2022/01/28 03:13:00;;;;;;;;;;;5.40;99.60;;;;;;6198170;23;19904;-87
2022/01/28 03:15:25;;;;;;;;;;;5.40;99.60;;;;;;6187030;23;19908;-87
2022/01/28 03:18:10;;;;;;;;;;;5.30;99.60;;;;;;6161610;23;20327;-87
2022/01/28 03:23:10;;;;;;;;;;;5.40;99.70;;;;;;6198329;23;20321;-87
2022/01/28 03:25:43;;;;;;;;;;;5.30;99.70;;;;;;6161405;23;19910;-87
2022/01/28 03:28:09;;;;;;;;;;;5.40;99.60;;;;;;6161286;23;19915;-87
2022/01/28 03:30:37;;;;;;;;;;;5.30;99.60;;;;;;6161916;23;19939;-88
2022/01/28 03:33:13;;;;;;;;;;;5.40;99.60;;;;;;6161628;23;20211;-88
2022/01/28 03:35:53;;;;;;;;;;;5.40;99.60;;;;;;6161571;23;20342;-87
2022/01/28 03:38:21;;;;;;;;;;;5.40;99.60;;;;;;6138718;23;19920;-87
2022/01/28 03:40:49;;;;;;;;;;;5.50;99.60;;;;;;6161659;23;19904;-88
2022/01/28 03:43:17;;;;;;;;;;;5.50;99.60;;;;;;6161759;23;19979;-88
2022/01/28 03:46:02;;;;;;;;;;;5.50;99.60;;;;;;6161645;23;19982;-88
2022/01/28 03:48:30;;;;;;;;;;;5.50;99.60;;;;;;6145402;23;20753;-88
2022/01/28 03:50:58;;;;;;;;;;;5.50;99.60;;;;;;6162034;23;20260;-87
2022/01/28 03:53:26;;;;;;;;;;;5.50;99.60;;;;;;6161312;23;19983;-87
2022/01/28 03:55:57;;;;;;;;;;;5.40;99.60;;;;;;6161061;23;19922;-88
2022/01/28 03:58:23;;;;;;;;;;;5.40;99.60;;;;;;6160941;23;19932;-88
2022/01/28 04:00:51;;;;;;;;;;;5.40;99.60;;;;;;6161813;23;19909;-88
2022/01/28 04:13:51;;;;;;;;;;;5.40;99.70;;;;;;6187733;23;19923;-87
2022/01/28 04:16:31;;;;;;;;;;;5.40;99.70;;;;;;6161860;23;19940;-88
2022/01/28 04:19:03;;;;;;;;;;;5.40;99.70;;;;;;6163954;23;20302;-88
2022/01/28 04:21:34;;;;;;;;;;;5.40;99.80;;;;;;6168501;23;19904;-87
2022/01/28 04:24:07;;;;;;;;;;;5.40;99.70;;;;;;6157583;23;19912;-87
2022/01/28 04:26:42;;;;;;;;;;;5.40;99.80;;;;;;6175501;23;19904;-87
2022/01/28 04:29:11;;;;;;;;;;;5.40;99.80;;;;;;6169291;23;19904;-87
2022/01/28 04:31:42;;;;;;;;;;;5.30;99.80;;;;;;6163401;23;19905;-87
2022/01/28 04:34:13;;;;;;;;;;;5.40;99.90;;;;;;6162810;23;19974;-88
2022/01/28 04:36:49;;;;;;;;;;;5.30;99.90;;;;;;6137192;23;19908;-87
2022/01/28 04:39:45;;;;;;;;;;;5.40;99.90;;;;;;6160924;23;19904;-88
2022/01/28 04:47:24;;;;;;;;;;;5.30;99.90;;;;;;6163404;23;19916;-87
2022/01/28 05:25:46;;;;;;;;;;;4.90;99.90;;;;;;6156811;23;19911;-88
2022/01/28 05:28:12;;;;;;;;;;;4.80;99.90;;;;;;6156503;23;19967;-88
2022/01/28 05:31:08;;;;;;;;;;;4.70;99.90;;;;;;6155136;23;19912;-87
2022/01/28 05:34:04;;;;;;;;;;;;;;;;;;;;;
2022/01/28 05:36:39;;;;;;;;;;;4.60;99.90;;;;;;6156665;23;19992;-87
2022/01/28 05:39:05;;;;;;;;;;;4.60;99.90;;;;;;6155813;23;19980;-87
2022/01/28 05:41:33;;;;;;;;;;;4.50;99.90;;;;;;6155890;23;20284;-86
2022/01/28 05:44:01;;;;;;;;;;;4.50;99.90;;;;;;6156079;23;19905;-87
2022/01/28 05:46:31;;;;;;;;;;;4.50;99.90;;;;;;6156390;23;19911;-88
2022/01/28 05:48:59;;;;;;;;;;;4.40;99.90;;;;;;6138993;23;19900;-89
2022/01/28 05:51:27;;;;;;;;;;;4.40;99.90;;;;;;6181624;23;19893;-90
2022/01/28 05:53:53;;;;;;;;;;;4.30;99.90;;;;;;6182643;23;19936;-88
2022/01/28 05:56:19;;;;;;;;;;;4.30;99.90;;;;;;6182861;23;19913;-87
2022/01/28 05:58:45;;;;;;;;;;;4.30;99.90;;;;;;6166728;23;19943;-87
2022/01/28 06:01:11;;;;;;;;;;;4.20;99.90;;;;;;6156792;23;19904;-86
2022/01/28 06:03:36;;;;;;;;;;;4.20;99.90;;;;;;6154918;23;20208;-87
2022/01/28 06:06:12;;;;;;;;;;;4.20;99.90;;;;;;6154708;23;20219;-87
2022/01/28 06:08:40;;;;;;;;;;;4.20;99.90;;;;;;6155301;23;19955;-87
2022/01/28 06:11:06;;;;;;;;;;;4.10;99.90;;;;;;6154757;23;19904;-87
2022/01/28 06:13:33;;;;;;;;;;;4.10;99.90;;;;;;6154828;23;19911;-87
2022/01/28 06:16:04;;;;;;;;;;;4.10;99.90;;;;;;6155355;23;19963;-87
2022/01/28 06:18:32;;;;;;;;;;;4.10;99.90;;;;;;6131457;23;19914;-87
2022/01/28 06:20:58;;;;;;;;;;;4.10;99.90;;;;;;6154987;23;19945;-89
2022/01/28 06:23:23;;;;;;;;;;;4.20;99.90;;;;;;6155775;23;19904;-89
2022/01/28 06:28:48;;;;;;;;;;;4.30;99.90;;;;;;6156290;23;19909;-90
2022/01/28 06:31:37;;;;;;;;;;;4.30;99.90;;;;;;6131984;23;19931;-91
2022/01/28 06:34:33;;;;;;;;;;;;;;;;;;;;;
2022/01/28 06:37:50;;;;;;;;;;;;;;;;;;;;;
2022/01/28 06:40:28;;;;;;;;;;;;;;;;;;;;;
2022/01/28 06:43:24;;;;;;;;;;;;;;;;;;;;;
2022/01/28 06:55:00;;;;;;;;;;;4.70;99.90;;;;;;6160253;23;19931;-91
2022/01/28 07:00:20;;;;;;;;;;;4.80;99.90;;;;;;6159769;23;19920;-88
2022/01/28 07:02:46;;;;;;;;;;;4.80;99.90;;;;;;6186006;23;19905;-87
2022/01/28 07:05:14;;;;;;;;;;;4.80;99.90;;;;;;6160457;23;19987;-88
2022/01/28 07:07:47;;;;;;;;;;;4.80;99.90;;;;;;6187461;23;19904;-88
2022/01/28 07:10:18;;;;;;;;;;;4.80;99.90;;;;;;6162009;23;20314;-88
2022/01/28 07:12:45;;;;;;;;;;;4.70;99.90;;;;;;6161922;23;19915;-88
2022/01/28 07:15:18;;;;;;;;;;;4.70;99.90;;;;;;6166043;23;19947;-92
2022/01/28 07:18:03;;;;;;;;;;;4.70;99.90;;;;;;6186102;23;19904;-88
2022/01/28 07:20:33;;;;;;;;;;;4.70;99.90;;;;;;6187074;23;19904;-88
2022/01/28 07:23:01;;;;;;;;;;;4.70;99.90;;;;;;6172254;23;20341;-88
2022/01/28 07:25:29;;;;;;;;;;;4.70;99.90;;;;;;6160712;23;19991;-88
2022/01/28 07:27:55;;;;;;;;;;;4.70;99.90;;;;;;6159371;23;19911;-88
2022/01/28 07:30:28;;;;;;;;;;;4.60;99.90;;;;;;6160447;23;19908;-88
2022/01/28 07:32:58;;;;;;;;;;;4.70;99.90;;;;;;6159764;23;19908;-88
2022/01/28 07:35:24;;;;;;;;;;;4.70;99.90;;;;;;6160438;23;19912;-88
2022/01/28 07:37:57;;;;;;;;;;;4.60;99.90;;;;;;6159967;23;19915;-88
2022/01/28 07:40:28;;;;;;;;;;;4.60;99.90;;;;;;6160034;23;19927;-89
2022/01/28 07:42:59;;;;;;;;;;;4.60;99.90;;;;;;6159879;23;19942;-88
2022/01/28 07:45:25;;;;;;;;;;;4.70;99.90;;;;;;6160965;23;19923;-88
2022/01/28 07:47:51;;;;;;;;;;;4.70;99.90;;;;;;6159425;23;19908;-88
2022/01/28 07:50:28;;;;;;;;;;;4.70;99.90;;;;;;6184230;23;19904;-88
2022/01/28 07:52:59;;;;;;;;;;;4.70;99.90;;;;;;6159454;23;19908;-89
2022/01/28 07:55:27;;;;;;;;;;;4.70;99.90;;;;;;6135688;23;19927;-88
2022/01/28 07:57:55;;;;;;;;;;;4.80;99.90;;;;;;6135814;23;19955;-87
2022/01/28 08:00:42;;;;;;;;;;;;;;;;;;;;;
2022/01/28 08:03:21;;;;;;;;;;;;;;;;;;;;;
2022/01/28 08:08:54;;;;;;;;;;;4.80;99.90;;;;;;6155298;23;20380;-91
2022/01/28 08:11:50;;;;;;;;;;;;;;;;;;;;;
2022/01/28 08:20:46;;;;;;;;;;;;;;;;;;;;;
2022/01/28 08:23:25;;;;;;;;;;;4.90;99.90;;;;;;6188881;23;19991;-90
2022/01/28 08:25:55;;;;;;;;;;;4.90;99.90;;;;;;6162159;23;19952;-89
2022/01/28 08:28:36;;;;;;;;;;;;;;;;;;;;;
2022/01/28 08:34:27;;;;;;;;;;;4.90;99.90;;;;;;6070195;23;19961;-91
2022/01/28 08:37:03;;;;;;;;;;;4.90;99.90;;;;;;6070615;23;19910;-89
2022/01/28 08:39:31;;;;;;;;;;;4.90;99.90;;;;;;6024072;23;20000;-89
2022/01/28 08:42:30;;;;;;;;;;;;;;;;;;;;;
2022/01/28 08:45:04;;;;;;;;;;;4.90;99.90;;;;;;6094892;23;19910;-90
2022/01/28 08:47:50;;;;;;;;;;;4.90;99.90;;;;;;6070725;23;19918;-90
2022/01/28 08:50:28;;;;;;;;;;;5.00;99.90;;;;;;6083566;23;19934;-91
2022/01/28 08:53:19;;;;;;;;;;;5.00;99.90;;;;;;6146765;23;19908;-91
2022/01/28 08:56:04;;;;;;;;;;;5.00;99.90;;;;;;6122679;23;19916;-93
2022/01/28 08:58:38;;;;;;;;;;;5.00;99.90;;;;;;6164492;23;19931;-91
2022/01/28 09:05:07;;;;;;;;;;;;;;;;;;;;;
2022/01/28 09:07:58;;;;;;;;;;;;;;;;;;;;;
2022/01/28 09:13:24;;;;;;;;;;;5.30;99.90;;;;;;6122645;23;19967;-92
2022/01/28 09:16:30;;;;;;;;;;;5.40;99.90;;;;;;6167038;23;19948;-91
2022/01/28 09:24:53;;;;;;;;;;;5.50;99.90;;;;;;6042552;23;19906;-90
2022/01/28 09:27:30;;;;;;;;;;;5.60;99.90;;;;;;6147477;23;19911;-88
2022/01/28 09:30:17;;;;;;;;;;;;;;;;;;;;;
2022/01/28 09:33:03;;;;;;;;;;;;;;;;;;;;;
2022/01/28 09:35:44;;;;;;;;;;;;;;;;;;;;;
2022/01/28 09:38:18;;;;;;;;;;;5.70;99.90;;;;;;6168389;23;19987;-89
2022/01/28 09:44:02;;;;;;;;;;;;;;;;;;;;;
2022/01/28 09:46:48;;;;;;;;;;;5.90;99.90;;;;;;6191524;23;19950;-90
2022/01/28 09:49:21;;;;;;;;;;;6.00;99.90;;;;;;6166292;23;19983;-90
2022/01/28 09:51:51;;;;;;;;;;;6.00;99.90;;;;;;6164901;23;19905;-89
2022/01/28 09:54:46;;;;;;;;;;;6.00;99.90;;;;;;6190583;23;19912;-90
2022/01/28 09:57:30;;;;;;;;;;;;;;;;;;;;;
2022/01/28 10:00:27;;;;;;;;;;;;;;;;;;;;;
2022/01/28 10:02:59;;;;;;;;;;;6.20;99.90;;;;;;6187799;23;20300;-89
2022/01/28 10:05:37;;;;;;;;;;;;;;;;;;;;;
2022/01/28 10:08:33;;;;;;;;;;;6.30;99.90;;;;;;6198489;23;19939;-89
2022/01/28 10:11:18;;;;;;;;;;;;;;;;;;;;;
2022/01/28 10:13:54;;;;;;;;;;;6.50;99.90;;;;;;6212135;23;19909;-88
2022/01/28 10:16:31;;;;;;;;;;;6.50;99.90;;;;;;6187409;23;19928;-90
2022/01/28 10:19:35;;;;;;;;;;;;;;;;;;;;;
2022/01/28 10:22:15;;;;;;;;;;;6.60;99.90;;;;;;6110244;23;19909;-88
2022/01/28 10:24:44;;;;;;;;;;;6.70;99.90;;;;;;6161803;23;20307;-88
2022/01/28 10:27:19;;;;;;;;;;;6.80;99.90;;;;;;6161319;23;19914;-89
2022/01/28 10:30:09;;;;;;;;;;;6.80;99.90;;;;;;6161397;23;19912;-90
2022/01/28 10:39:07;;;;;;;;;;;;;;;;;;;;;
2022/01/28 10:44:53;;;;;;;;;;;7.00;99.90;;;;;;6124954;23;19909;-91
2022/01/28 10:47:53;;;;;;;;;;;7.10;99.90;;;;;;6150306;23;19904;-88
2022/01/28 10:50:31;;;;;;;;;;;7.20;99.90;;;;;;6187414;23;19905;-89
2022/01/28 10:53:19;;;;;;;;;;;7.30;99.90;;;;;;6161512;23;19904;-90
2022/01/28 10:56:07;;;;;;;;;;;7.40;99.90;;;;;;6155306;23;19917;-89
2022/01/28 10:58:53;;;;;;;;;;;;;;;;;;;;;
2022/01/28 11:01:31;;;;;;;;;;;7.40;99.80;;;;;;6155622;23;19987;-88
2022/01/28 11:03:57;;;;;;;;;;;7.50;99.80;;;;;;6155581;23;20304;-92
2022/01/28 11:06:40;;;;;;;;;;;7.60;99.70;;;;;;6155880;23;19905;-88
2022/01/28 11:09:14;;;;;;;;;;;7.60;99.50;;;;;;6133181;23;19964;-89
2022/01/28 11:12:10;;;;;;;;;;;7.60;99.30;;;;;;6155969;23;19987;-90
2022/01/28 11:15:05;;;;;;;;;;;7.70;99.20;;;;;;6130950;23;19939;-91
2022/01/28 11:21:16;;;;;;;;;;;;;;;;;;;;;
2022/01/28 11:24:20;;;;;;;;;;;;;;;;;;;;;
2022/01/28 11:26:57;;;;;;;;;;;8.00;99.10;;;;;;6157457;23;19976;-90
2022/01/28 11:29:37;;;;;;;;;;;8.10;98.80;;;;;;6155964;23;19904;-89
2022/01/28 11:32:20;;;;;;;;;;;8.20;98.80;;;;;;6155577;23;19908;-88
2022/01/28 11:35:10;;;;;;;;;;;8.20;98.10;;;;;;6159773;23;20315;-91
2022/01/28 11:37:56;;;;;;;;;;;;;;;;;;;;;
2022/01/28 11:40:25;;;;;;;;;;;8.30;97.90;;;;;;6161068;23;19996;-90
2022/01/28 11:52:13;;;;;;;;;;;8.50;97.50;;;;;;6122096;23;19936;-91
2022/01/28 11:55:28;;;;;;;;;;;8.50;97.20;;;;;;6100174;23;19920;-90
2022/01/28 11:58:30;;;;;;;;;;;;;;;;;;;;;
2022/01/28 12:01:01;;;;;;;;;;;8.50;96.90;;;;;;6088840;23;19991;-89
2022/01/28 12:03:59;;;;;;;;;;;;;;;;;;;;;
2022/01/28 12:09:20;;;;;;;;;;;8.50;96.00;;;;;;6105704;23;19916;-89
2022/01/28 12:11:48;;;;;;;;;;;8.50;96.00;;;;;;6127869;23;19909;-89
2022/01/28 12:14:14;;;;;;;;;;;8.50;96.00;;;;;;6126911;23;19912;-90
2022/01/28 12:16:49;;;;;;;;;;;8.50;95.60;;;;;;6127200;23;19964;-89
2022/01/28 12:19:18;;;;;;;;;;;8.50;95.80;;;;;;6127500;23;19905;-89
2022/01/28 12:22:04;;;;;;;;;;;8.50;95.80;;;;;;6127451;23;19905;-89
2022/01/28 12:24:37;;;;;;;;;;;8.40;95.80;;;;;;6128172;23;20340;-88
2022/01/28 12:27:05;;;;;;;;;;;8.40;95.80;;;;;;6125891;23;19952;-87
2022/01/28 12:29:34;;;;;;;;;;;8.40;95.80;;;;;;6126800;23;19905;-89
2022/01/28 12:32:01;;;;;;;;;;;8.40;95.70;;;;;;6128119;23;19909;-88
2022/01/28 12:37:58;;;;;;;;;;;8.40;95.80;;;;;;6128277;23;19913;-89
2022/01/28 12:40:51;;;;;;;;;;;8.40;95.90;;;;;;6128610;23;19937;-89
2022/01/28 12:43:35;;;;;;;;;;;;;;;;;;;;;
2022/01/28 12:46:16;;;;;;;;;;;8.50;95.70;;;;;;6129296;23;20422;-89
2022/01/28 12:48:54;;;;;;;;;;;8.60;95.40;;;;;;6127810;23;19983;-89
2022/01/28 12:51:31;;;;;;;;;;;8.60;95.40;;;;;;6127798;23;20332;-88
2022/01/28 12:53:59;;;;;;;;;;;8.60;95.30;;;;;;6128274;23;19936;-89
2022/01/28 12:57:04;;;;;;;;;;;;;;;;;;;;;
2022/01/28 12:59:37;;;;;;;;;;;8.70;95.10;;;;;;6187694;23;19987;-89
2022/01/28 13:02:09;;;;;;;;;;;8.70;95.10;;;;;;6137101;23;19915;-89
2022/01/28 13:10:51;;;;;;;;;;;8.80;94.90;;;;;;6192234;23;20333;-88
2022/01/28 13:13:32;;;;;;;;;;;8.90;94.80;;;;;;6167313;23;19904;-89
2022/01/28 13:16:14;;;;;;;;;;;8.80;95.00;;;;;;6150556;23;19923;-89
2022/01/28 13:19:16;;;;;;;;;;;8.90;95.00;;;;;;6187315;22;19899;-89
2022/01/28 13:22:06;;;;;;;;;;;8.90;94.80;;;;;;6102049;23;19921;-89
2022/01/28 13:24:40;;;;;;;;;;;8.90;94.60;;;;;;6191893;22;19912;-90
2022/01/28 13:27:29;;;;;;;;;;;9.00;94.30;;;;;;6169562;23;19908;-89
2022/01/28 13:30:13;;;;;;;;;;;;;;;;;;;;;
2022/01/28 13:32:59;;;;;;;;;;;9.00;94.40;;;;;;6164836;23;19992;-89
2022/01/28 13:35:27;;;;;;;;;;;9.00;94.50;;;;;;6160582;23;19913;-89
2022/01/28 13:37:58;;;;;;;;;;;9.00;94.50;;;;;;6136783;23;19930;-89
2022/01/28 13:40:38;;;;;;;;;;;8.90;94.50;;;;;;6160999;23;19927;-90
2022/01/28 13:43:23;;;;;;;;;;;9.00;94.50;;;;;;6159750;23;19947;-89
2022/01/28 13:46:02;;;;;;;;;;;9.00;94.60;;;;;;6187452;23;19904;-88
2022/01/28 13:48:34;;;;;;;;;;;9.00;94.40;;;;;;6186828;23;20035;-89
2022/01/28 13:51:12;;;;;;;;;;;9.00;94.50;;;;;;6160747;23;19909;-89
2022/01/28 13:57:02;;;;;;;;;;;;;;;;;;;;;
2022/01/28 13:59:53;;;;;;;;;;;8.90;94.50;;;;;;6188616;23;19983;-90
2022/01/28 14:02:24;;;;;;;;;;;8.90;94.50;;;;;;6149237;23;19905;-92
2022/01/28 14:08:17;;;;;;;;;;;;;;;;;;;;;
2022/01/28 14:14:00;;;;;;;;;;;;;;;;;;;;;
2022/01/28 14:20:14;;;;;;;;;;;;;;;;;;;;;
2022/01/28 14:23:08;;;;;;;;;;;8.90;94.30;;;;;;6187197;23;20000;-91
2022/01/28 14:25:56;;;;;;;;;;;8.90;94.20;;;;;;6161151;23;19905;-90
2022/01/28 14:29:08;;;;;;;;;;;9.00;94.40;;;;;;6138470;23;19908;-91
2022/01/28 14:31:57;;;;;;;;;;;;;;;;;;;;;
2022/01/28 14:34:50;;;;;;;;;;;9.00;94.50;;;;;;6179791;23;19956;-91
2022/01/28 14:37:37;;;;;;;;;;;;;;;;;;;;;
2022/01/28 14:40:21;;;;;;;;;;;9.00;94.50;;;;;;6164501;23;19948;-91
2022/01/28 14:45:50;;;;;;;;;;;8.90;94.60;;;;;;6150933;23;19915;-90
2022/01/28 14:48:44;;;;;;;;;;;8.90;95.00;;;;;;6140009;23;19995;-89
2022/01/28 14:51:30;;;;;;;;;;;;;;;;;;;;;
2022/01/28 14:54:26;;;;;;;;;;;8.90;94.90;;;;;;6212834;22;19899;-90
2022/01/28 15:03:18;;;;;;;;;;;8.90;95.00;;;;;;6156558;23;19908;-90
2022/01/28 15:05:59;;;;;;;;;;;8.90;95.00;;;;;;6151046;23;19911;-90
2022/01/28 15:08:59;;;;;;;;;;;;;;;;;;;;;
2022/01/28 15:11:42;;;;;;;;;;;8.90;95.10;;;;;;6182148;23;19971;-90
2022/01/28 15:14:35;;;;;;;;;;;8.90;95.10;;;;;;6163186;23;19952;-90
2022/01/28 15:17:45;;;;;;;;;;;;;;;;;;;;;
2022/01/28 15:20:24;;;;;;;;;;;;;;;;;;;;;
2022/01/28 15:23:50;;;;;;;;;;;8.90;95.40;;;;;;6189624;23;19984;-91
2022/01/28 15:26:06;;;;;;;;;;;;;;;;;;;;;
2022/01/28 15:43:38;;;;;;;;;;;8.60;95.70;;;;;;6111597;23;19912;-92
2022/01/28 15:49:40;;;;;;;;;;;;;;;;;;;;;
2022/01/28 15:52:27;;;;;;;;;;;8.50;95.90;;;;;;6165797;23;19987;-91
2022/01/28 15:55:15;;;;;;;;;;;8.50;96.00;;;;;;6147393;23;19919;-90
2022/01/28 15:57:59;;;;;;;;;;;8.50;96.00;;;;;;6157456;23;19917;-90
2022/01/28 16:00:42;;;;;;;;;;;8.50;96.10;;;;;;6134748;23;19912;-91
2022/01/28 16:03:38;;;;;;;;;;;;;;;;;;;;;
2022/01/28 16:06:26;;;;;;;;;;;;;;;;;;;;;
2022/01/28 16:08:57;;;;;;;;;;;8.40;96.60;;;;;;6159137;23;20278;-90
2022/01/28 16:14:45;;;;;;;;;;;8.40;96.40;;;;;;6148464;23;20383;-91
2022/01/28 16:17:40;;;;;;;;;;;8.30;96.50;;;;;;6137308;23;19909;-90
2022/01/28 16:20:19;;;;;;;;;;;8.30;96.60;;;;;;6159897;23;20304;-91
2022/01/28 16:23:01;;;;;;;;;;;8.30;96.60;;;;;;6162946;23;19905;-91
2022/01/28 16:25:39;;;;;;;;;;;8.30;96.70;;;;;;6147460;23;19935;-90
2022/01/28 16:31:27;;;;;;;;;;;;;;;;;;;;;
2022/01/28 16:34:38;;;;;;;;;;;8.20;96.80;;;;;;6168995;23;19948;-90
2022/01/28 16:40:17;;;;;;;;;;;;;;;;;;;;;
2022/01/28 16:46:26;;;;;;;;;;;;;;;;;;;;;
2022/01/28 16:49:02;;;;;;;;;;;;;;;;;;;;;
2022/01/28 16:52:01;;;;;;;;;;;;;;;;;;;;;
2022/01/28 17:00:57;;;;;;;;;;;;;;;;;;;;;
2022/01/28 17:09:32;;;;;;;;;;;7.80;97.40;;;;;;6111713;23;19913;-89
2022/01/28 17:15:16;;;;;;;;;;;7.80;97.40;;;;;;6155398;23;20012;-89
2022/01/28 17:28:15;;;;;;;;;;;7.80;97.70;;;;;;6093339;23;19909;-91
2022/01/28 17:31:25;;;;;;;;;;;;;;;;;;;;;
2022/01/28 17:43:54;;;;;;;;;;;7.80;97.70;;;;;;5983300;24;20001;-90
2022/01/28 18:02:07;;;;;;;;;;;7.90;97.60;;;;;;5982632;24;19934;-90
2022/01/28 18:05:17;;;;;;;;;;;8.00;97.60;;;;;;5992974;24;19913;-92
2022/01/28 18:07:52;;;;;;;;;;;7.90;97.60;;;;;;5979239;24;19918;-85
2022/01/28 18:29:39;;;;;;;;;;;7.90;98.30;;;;;;5986322;23;19989;-88
2022/01/28 19:02:20;;;;;;;;;;;;;;;;;;;;;
2022/01/28 19:34:54;;;;;;;;;;;;;;;;;;;;;
2022/01/28 20:26:58;;;;;;;;;;;;;;;;;;;;;
2022/01/28 20:30:00;;;;;;;;;;;;;;;;;;;;;
2022/01/28 20:46:05;;;;;;;;;;;7.50;99.90;;;;;;5932916;24;19911;-92
